Time;durP1;ratioP1;P1;durP2;ratioP2;P2;SDS_P1;SDS_P2;PMS_P1;PMS_P2;Temp;Humidity;BMP_temperature;BMP_pressure;BME280_temperature;BME280_humidity;BME280_pressure;Samples;Min_cycle;Max_cycle;Signal;HPM_P1;HPM_P2
2022/07/23 00:00:40;;;;;;;7.38;6.38;;;13.80;99.90;;;;;;4991018;28;20050;-47
2022/07/23 00:03:06;;;;;;;7.72;6.35;;;13.80;99.90;;;;;;4996267;28;20096;-47
2022/07/23 00:05:33;;;;;;;7.15;6.18;;;13.70;99.90;;;;;;5001604;28;20144;-50
2022/07/23 00:08:01;;;;;;;7.22;5.50;;;13.70;99.90;;;;;;5000830;28;20046;-53
2022/07/23 00:10:30;;;;;;;5.40;4.90;;;13.70;99.90;;;;;;4967428;28;20518;-50
2022/07/23 00:12:57;;;;;;;6.97;4.55;;;13.70;99.90;;;;;;4970730;28;20549;-52
2022/07/23 00:15:26;;;;;;;5.68;4.28;;;13.60;99.90;;;;;;4973447;28;20073;-48
2022/07/23 00:17:53;;;;;;;6.38;4.45;;;13.50;99.90;;;;;;4995659;28;20066;-48
2022/07/23 00:20:20;;;;;;;4.72;3.95;;;13.40;99.90;;;;;;4992858;28;20066;-48
2022/07/23 00:22:48;;;;;;;4.95;4.10;;;13.40;99.90;;;;;;4986511;28;20092;-48
2022/07/23 00:25:36;;;;;;;5.10;4.60;;;13.30;99.90;;;;;;4989264;28;20084;-48
2022/07/23 00:28:04;;;;;;;6.70;4.72;;;13.30;99.90;;;;;;4985401;28;20416;-46
2022/07/23 00:30:31;;;;;;;6.43;4.88;;;13.20;99.90;;;;;;4999041;28;20413;-49
2022/07/23 00:33:01;;;;;;;6.03;5.13;;;13.20;99.90;;;;;;4968439;28;20042;-48
2022/07/23 00:35:32;;;;;;;7.07;5.57;;;13.20;99.90;;;;;;4977466;28;20058;-46
2022/07/23 00:37:59;;;;;;;10.15;5.82;;;13.20;99.90;;;;;;4970097;28;20097;-49
2022/07/23 00:40:27;;;;;;;6.55;5.95;;;13.10;99.90;;;;;;4987109;28;20054;-51
2022/07/23 00:42:54;;;;;;;6.03;4.28;;;13.10;99.90;;;;;;4972546;28;20524;-50
2022/07/23 00:45:21;;;;;;;6.82;4.53;;;13.10;99.90;;;;;;4970483;28;20046;-49
2022/07/23 00:47:51;;;;;;;5.38;4.88;;;13.10;99.90;;;;;;4972989;28;20537;-48
2022/07/23 00:50:18;;;;;;;5.03;3.97;;;13.00;99.90;;;;;;4998941;28;20401;-47
2022/07/23 00:52:45;;;;;;;4.15;3.55;;;13.00;99.90;;;;;;4952966;28;20050;-48
2022/07/23 00:55:12;;;;;;;4.00;3.60;;;12.90;99.90;;;;;;4969631;28;20081;-50
2022/07/23 00:57:42;;;;;;;5.50;3.95;;;12.90;99.90;;;;;;4951043;28;20062;-47
2022/07/23 01:00:12;;;;;;;4.88;3.78;;;12.90;99.90;;;;;;4976271;28;20567;-51
2022/07/23 01:02:40;;;;;;;6.35;4.78;;;12.80;99.90;;;;;;4972338;28;20455;-48
2022/07/23 01:05:09;;;;;;;5.60;5.03;;;12.80;99.90;;;;;;4996455;28;20500;-49
2022/07/23 01:07:40;;;;;;;5.97;5.38;;;12.80;99.90;;;;;;5008062;28;20080;-50
2022/07/23 01:10:30;;;;;;;4.82;3.58;;;12.80;99.90;;;;;;5011476;28;20073;-50
2022/07/23 01:12:55;;;;;;;5.32;2.65;;;12.90;99.90;;;;;;5013827;28;20053;-50
2022/07/23 01:15:23;;;;;;;3.03;2.55;;;12.80;99.90;;;;;;5003388;28;20056;-47
2022/07/23 01:17:51;;;;;;;5.53;2.75;;;12.80;99.90;;;;;;5011778;28;20111;-48
2022/07/23 01:20:19;;;;;;;4.00;2.88;;;12.80;99.90;;;;;;4991963;28;20119;-48
2022/07/23 01:22:47;;;;;;;6.75;4.20;;;12.80;99.90;;;;;;4988724;28;20543;-53
2022/07/23 01:25:14;;;;;;;5.63;4.50;;;12.90;99.90;;;;;;5006893;28;20683;-49
2022/07/23 01:27:45;;;;;;;7.43;5.63;;;12.80;99.90;;;;;;4983503;28;20099;-50
2022/07/23 01:30:13;;;;;;;4.93;4.43;;;12.80;99.90;;;;;;4992866;28;20534;-47
2022/07/23 01:32:41;;;;;;;4.22;3.70;;;12.80;99.90;;;;;;4988251;28;20062;-48
2022/07/23 01:35:13;;;;;;;5.68;4.63;;;12.80;99.90;;;;;;5017037;28;20050;-48
2022/07/23 01:37:49;;;;;;;6.22;5.28;;;12.80;99.90;;;;;;4980520;28;20520;-49
2022/07/23 01:40:17;;;;;;;7.28;5.38;;;12.70;99.90;;;;;;4987696;28;20096;-48
2022/07/23 01:42:43;;;;;;;6.55;5.60;;;12.70;99.90;;;;;;5005605;28;20338;-52
2022/07/23 01:45:11;;;;;;;7.63;4.68;;;12.70;99.90;;;;;;4994177;28;20049;-50
2022/07/23 01:47:39;;;;;;;4.18;3.40;;;12.70;99.90;;;;;;4995712;28;20096;-52
2022/07/23 01:50:06;;;;;;;5.40;3.13;;;12.60;99.90;;;;;;4970165;28;20603;-50
2022/07/23 01:52:35;;;;;;;3.50;2.70;;;12.60;99.90;;;;;;4987506;28;20057;-49
2022/07/23 01:55:02;;;;;;;3.40;2.72;;;12.50;99.90;;;;;;4986357;28;20075;-48
2022/07/23 01:57:33;;;;;;;3.08;2.50;;;12.50;99.90;;;;;;4987644;28;20654;-51
2022/07/23 01:59:59;;;;;;;3.35;3.03;;;12.40;99.90;;;;;;4987823;28;20066;-49
2022/07/23 02:02:26;;;;;;;4.40;2.90;;;12.40;99.90;;;;;;4967929;28;20089;-49
2022/07/23 02:04:52;;;;;;;4.70;3.58;;;12.40;99.90;;;;;;4970354;28;20054;-52
2022/07/23 02:07:18;;;;;;;4.53;3.65;;;12.40;99.90;;;;;;4948807;28;20497;-48
2022/07/23 02:09:45;;;;;;;7.03;4.47;;;12.40;99.90;;;;;;4968801;28;20151;-49
2022/07/23 02:12:14;;;;;;;9.40;5.80;;;12.40;99.90;;;;;;4935944;28;20050;-49
2022/07/23 02:14:42;;;;;;;7.38;5.78;;;12.40;99.90;;;;;;4950245;28;20051;-49
2022/07/23 02:17:08;;;;;;;8.63;6.50;;;12.40;99.90;;;;;;4968950;28;20046;-50
2022/07/23 02:19:40;;;;;;;7.47;6.35;;;12.40;99.90;;;;;;4953582;28;20050;-49
2022/07/23 02:22:06;;;;;;;6.22;4.78;;;12.40;99.90;;;;;;4960213;28;20133;-51
2022/07/23 02:24:33;;;;;;;5.40;3.95;;;12.30;99.90;;;;;;4949393;28;20082;-46
2022/07/23 02:26:59;;;;;;;8.32;5.38;;;12.30;99.90;;;;;;4932581;29;20058;-47
2022/07/23 02:29:26;;;;;;;5.40;4.85;;;12.30;99.90;;;;;;4940766;28;20073;-49
2022/07/23 02:31:53;;;;;;;4.05;3.58;;;12.30;99.90;;;;;;4914965;29;20502;-48
2022/07/23 02:34:23;;;;;;;2.50;2.30;;;12.30;99.90;;;;;;4958369;28;20073;-48
2022/07/23 02:36:50;;;;;;;5.82;3.33;;;12.20;99.90;;;;;;4965193;28;20039;-54
2022/07/23 02:39:17;;;;;;;3.85;3.55;;;12.20;99.90;;;;;;4945664;28;20094;-48
2022/07/23 02:41:43;;;;;;;4.95;3.97;;;12.20;99.90;;;;;;4983764;28;20050;-50
2022/07/23 02:44:10;;;;;;;5.05;3.47;;;12.10;99.90;;;;;;4981397;28;20122;-51
2022/07/23 02:46:37;;;;;;;4.30;3.22;;;12.10;99.90;;;;;;4974120;28;20125;-47
2022/07/23 02:49:04;;;;;;;4.20;3.80;;;12.10;99.90;;;;;;4972857;28;20047;-51
2022/07/23 02:51:31;;;;;;;7.32;3.83;;;12.10;99.90;;;;;;4966675;28;20046;-50
2022/07/23 02:53:59;;;;;;;3.88;3.30;;;12.00;99.90;;;;;;4983933;28;20560;-48
2022/07/23 02:56:28;;;;;;;4.93;3.25;;;12.00;99.90;;;;;;4948904;28;20090;-50
2022/07/23 02:58:55;;;;;;;4.07;3.50;;;12.00;99.90;;;;;;4948315;28;20100;-47
2022/07/23 03:01:22;;;;;;;4.57;3.90;;;11.90;99.90;;;;;;4947260;28;20061;-47
2022/07/23 03:03:54;;;;;;;4.85;3.58;;;11.90;99.90;;;;;;5004966;28;20065;-50
2022/07/23 03:06:22;;;;;;;4.53;3.30;;;11.90;99.90;;;;;;4977957;28;20093;-49
2022/07/23 03:08:54;;;;;;;3.67;2.60;;;11.80;99.90;;;;;;4987246;28;20050;-47
2022/07/23 03:11:24;;;;;;;2.50;2.00;;;11.80;99.90;;;;;;4986393;28;20511;-50
2022/07/23 03:13:50;;;;;;;2.20;1.90;;;11.70;99.90;;;;;;4986637;28;20050;-48
2022/07/23 03:16:16;;;;;;;5.55;1.95;;;11.70;99.90;;;;;;5003396;28;20100;-48
2022/07/23 03:18:48;;;;;;;1.75;1.50;;;11.60;99.90;;;;;;5018469;28;20050;-47
2022/07/23 03:21:18;;;;;;;2.55;1.48;;;11.60;99.90;;;;;;4981415;28;20422;-48
2022/07/23 03:23:46;;;;;;;1.30;1.20;;;11.50;99.90;;;;;;4961221;28;20045;-51
2022/07/23 03:26:16;;;;;;;3.25;1.40;;;11.50;99.90;;;;;;5004901;28;20088;-51
2022/07/23 03:28:42;;;;;;;2.00;1.30;;;11.50;99.90;;;;;;5004746;28;20054;-50
2022/07/23 03:31:09;;;;;;;1.30;1.17;;;11.50;99.90;;;;;;5017671;28;20086;-51
2022/07/23 03:33:35;;;;;;;1.63;1.25;;;11.50;99.90;;;;;;5009733;28;20128;-50
2022/07/23 03:36:09;;;;;;;1.17;0.93;;;11.50;99.90;;;;;;4999923;28;20060;-48
2022/07/23 03:38:38;;;;;;;3.60;1.20;;;11.50;99.90;;;;;;5004625;28;20045;-48
2022/07/23 03:41:11;;;;;;;1.98;1.30;;;11.40;99.90;;;;;;4990821;28;20053;-48
2022/07/23 03:43:40;;;;;;;2.08;1.20;;;11.50;99.90;;;;;;4989206;28;20057;-48
2022/07/23 03:46:07;;;;;;;2.65;1.30;;;11.50;99.90;;;;;;5018064;28;20412;-51
2022/07/23 03:48:34;;;;;;;2.08;1.45;;;11.50;99.90;;;;;;4981500;28;20054;-52
2022/07/23 03:51:01;;;;;;;1.85;1.60;;;11.50;99.90;;;;;;4989474;28;20556;-55
2022/07/23 03:53:27;;;;;;;2.38;1.50;;;11.50;99.90;;;;;;5003699;28;20056;-50
2022/07/23 03:55:57;;;;;;;2.28;1.23;;;11.50;99.90;;;;;;4979654;28;20045;-49
2022/07/23 03:58:23;;;;;;;1.80;1.10;;;11.50;99.90;;;;;;5007807;28;20058;-47
2022/07/23 04:00:59;;;;;;;3.28;1.58;;;11.50;99.90;;;;;;4989152;28;20045;-48
2022/07/23 04:03:29;;;;;;;2.55;1.92;;;11.50;99.90;;;;;;4986719;28;20050;-49
2022/07/23 04:05:56;;;;;;;2.03;1.55;;;11.60;99.90;;;;;;4987135;28;20152;-48
2022/07/23 04:08:25;;;;;;;1.98;1.50;;;11.70;99.90;;;;;;4987838;28;20053;-53
2022/07/23 04:10:56;;;;;;;2.88;2.10;;;11.70;99.90;;;;;;5004217;28;20060;-48
2022/07/23 04:13:26;;;;;;;2.37;1.80;;;11.80;99.90;;;;;;4969963;28;20149;-47
2022/07/23 04:15:52;;;;;;;7.22;1.90;;;11.80;99.90;;;;;;4987002;28;20302;-48
2022/07/23 04:18:18;;;;;;;3.55;2.20;;;11.90;99.90;;;;;;4970205;28;20054;-47
2022/07/23 04:20:44;;;;;;;2.60;2.15;;;12.00;99.90;;;;;;4987900;28;20094;-48
2022/07/23 04:23:10;;;;;;;3.13;2.10;;;12.10;99.90;;;;;;5008043;28;20622;-49
2022/07/23 04:25:39;;;;;;;2.63;2.00;;;12.20;99.90;;;;;;5007835;28;20057;-49
2022/07/23 04:28:09;;;;;;;3.08;1.60;;;12.20;99.90;;;;;;5006821;28;20045;-52
2022/07/23 04:30:36;;;;;;;6.13;2.40;;;12.30;99.90;;;;;;5007694;28;20548;-47
2022/07/23 04:33:12;;;;;;;3.58;2.50;;;12.80;99.90;;;;;;4990377;28;20445;-47
2022/07/23 04:35:39;;;;;;;6.22;2.83;;;13.90;99.90;;;;;;4989078;28;20042;-50
2022/07/23 04:38:05;;;;;;;5.68;3.42;;;14.80;99.90;;;;;;5007721;28;20185;-50
2022/07/23 04:40:31;;;;;;;4.95;3.30;;;15.50;99.90;;;;;;4990055;28;20121;-49
2022/07/23 04:42:58;;;;;;;3.90;3.17;;;16.20;99.90;;;;;;4987007;28;20061;-50
2022/07/23 04:45:25;;;;;;;4.40;2.67;;;17.10;99.90;;;;;;4995019;28;20397;-53
2022/07/23 04:48:01;;;;;;;6.43;3.22;;;17.90;99.90;;;;;;4984866;28;20508;-48
2022/07/23 04:50:27;;;;;;;5.90;3.00;;;18.50;99.90;;;;;;4976317;28;20054;-52
2022/07/23 04:52:55;;;;;;;11.43;3.40;;;19.00;99.90;;;;;;5000943;28;20670;-49
2022/07/23 04:55:21;;;;;;;6.88;3.75;;;19.10;99.90;;;;;;5006275;28;20126;-51
2022/07/23 04:57:48;;;;;;;3.85;3.25;;;18.80;99.90;;;;;;5006003;28;20520;-49
2022/07/23 05:00:16;;;;;;;4.38;2.90;;;19.10;99.90;;;;;;5009254;28;20046;-52
2022/07/23 05:02:43;;;;;;;5.63;3.45;;;19.70;99.90;;;;;;4985581;28;20045;-50
2022/07/23 05:05:10;;;;;;;5.45;3.55;;;20.30;99.90;;;;;;4983274;28;20064;-57
2022/07/23 05:07:40;;;;;;;4.70;3.60;;;20.90;99.90;;;;;;4986203;28;20436;-51
2022/07/23 05:10:07;;;;;;;3.60;3.30;;;21.50;99.90;;;;;;4965466;28;20045;-51
2022/07/23 05:12:33;;;;;;;5.15;3.78;;;22.10;99.90;;;;;;4986680;28;20042;-51
2022/07/23 05:15:01;;;;;;;5.75;3.25;;;22.60;99.90;;;;;;4971264;28;20046;-52
2022/07/23 05:17:27;;;;;;;4.82;3.58;;;23.10;99.90;;;;;;5006539;28;20058;-51
2022/07/23 05:19:54;;;;;;;4.68;3.53;;;23.50;99.90;;;;;;4988604;28;20073;-48
2022/07/23 05:22:21;;;;;;;5.00;3.85;;;23.80;99.90;;;;;;4988050;28;20085;-50
2022/07/23 05:24:47;;;;;;;5.47;3.92;;;24.20;99.90;;;;;;5000964;28;20475;-47
2022/07/23 05:27:17;;;;;;;5.03;4.05;;;24.40;99.80;;;;;;4996263;28;20061;-49
2022/07/23 05:29:44;;;;;;;4.68;4.28;;;24.70;99.10;;;;;;4988435;28;20065;-52
2022/07/23 05:32:11;;;;;;;6.05;4.68;;;25.40;99.20;;;;;;5008210;28;20535;-51
2022/07/23 05:34:41;;;;;;;6.13;4.47;;;25.80;98.10;;;;;;5025158;28;20119;-47
2022/07/23 05:37:07;;;;;;;7.57;4.70;;;26.30;97.10;;;;;;5002362;28;20048;-50
2022/07/23 05:39:35;;;;;;;5.20;4.70;;;26.60;96.60;;;;;;4995866;28;20492;-50
2022/07/23 05:42:02;;;;;;;5.05;4.30;;;26.90;95.60;;;;;;5025556;28;20056;-49
2022/07/23 05:44:31;;;;;;;5.35;4.85;;;27.20;95.30;;;;;;4985874;28;20045;-48
2022/07/23 05:46:58;;;;;;;4.68;3.97;;;27.60;94.60;;;;;;5013191;28;20052;-52
2022/07/23 05:49:24;;;;;;;5.47;4.15;;;27.90;94.30;;;;;;5006894;28;20556;-51
2022/07/23 05:51:56;;;;;;;7.00;3.78;;;28.20;93.70;;;;;;4960566;28;20453;-45
2022/07/23 05:54:27;;;;;;;7.10;3.72;;;28.60;92.50;;;;;;5012044;28;20056;-45
2022/07/23 05:56:54;;;;;;;5.38;3.38;;;28.90;92.20;;;;;;4974533;28;20504;-47
2022/07/23 05:59:23;;;;;;;4.93;3.45;;;29.10;92.40;;;;;;4990649;28;20049;-49
2022/07/23 06:01:51;;;;;;;6.65;3.65;;;29.40;91.70;;;;;;5008172;28;20496;-48
2022/07/23 06:04:19;;;;;;;6.35;3.70;;;29.60;91.20;;;;;;5001848;28;20089;-48
2022/07/23 06:06:53;;;;;;;5.35;3.20;;;29.70;91.30;;;;;;5018384;28;20060;-46
2022/07/23 06:09:22;;;;;;;6.20;2.38;;;30.10;90.10;;;;;;5006087;28;20049;-49
2022/07/23 06:11:52;;;;;;;3.95;2.17;;;30.30;89.30;;;;;;5021950;28;20503;-48
2022/07/23 06:14:21;;;;;;;3.90;2.20;;;30.60;88.60;;;;;;4991280;28;20049;-47
2022/07/23 06:16:52;;;;;;;4.85;2.85;;;30.70;89.20;;;;;;5008292;28;20102;-50
2022/07/23 06:19:18;;;;;;;7.13;2.50;;;31.00;87.00;;;;;;4989584;28;20458;-50
2022/07/23 06:21:48;;;;;;;2.78;2.00;;;31.30;87.30;;;;;;5023814;28;20049;-52
2022/07/23 06:24:17;;;;;;;7.43;2.42;;;31.60;85.30;;;;;;4984068;28;20519;-51
2022/07/23 06:26:56;;;;;;;4.32;2.30;;;31.70;85.20;;;;;;4989037;28;20045;-51
2022/07/23 06:29:25;;;;;;;3.58;1.77;;;32.10;83.40;;;;;;5018847;28;20157;-48
2022/07/23 06:31:55;;;;;;;2.92;1.33;;;32.10;83.10;;;;;;4986337;28;20061;-48
2022/07/23 06:34:23;;;;;;;3.30;1.17;;;32.20;82.60;;;;;;5014145;28;20052;-47
2022/07/23 06:36:49;;;;;;;5.57;1.60;;;32.40;80.30;;;;;;4988467;28;20444;-47
2022/07/23 06:39:18;;;;;;;2.97;1.42;;;32.80;81.10;;;;;;4979939;28;20073;-48
2022/07/23 06:41:45;;;;;;;1.38;1.23;;;33.10;79.10;;;;;;4988808;28;20140;-49
2022/07/23 06:44:12;;;;;;;2.97;1.20;;;33.00;78.60;;;;;;5024348;28;20049;-50
2022/07/23 06:46:41;;;;;;;3.50;1.50;;;33.10;78.30;;;;;;4986866;28;20057;-49
2022/07/23 06:49:09;;;;;;;3.13;1.10;;;32.80;78.00;;;;;;4974817;28;20046;-48
2022/07/23 06:51:35;;;;;;;3.50;1.00;;;32.70;77.50;;;;;;4987634;28;20049;-48
2022/07/23 06:54:03;;;;;;;1.85;1.10;;;32.60;78.30;;;;;;4979827;28;20046;-49
2022/07/23 06:56:40;;;;;;;2.28;1.10;;;32.20;77.60;;;;;;5022695;28;20184;-48
2022/07/23 06:59:07;;;;;;;2.35;1.15;;;32.40;76.70;;;;;;4969936;28;20457;-52
2022/07/23 07:01:36;;;;;;;1.77;1.25;;;32.20;77.80;;;;;;5012547;28;20134;-50
2022/07/23 07:04:04;;;;;;;2.13;1.13;;;32.20;76.60;;;;;;4991578;28;20062;-48
2022/07/23 07:06:30;;;;;;;2.95;0.95;;;32.50;76.50;;;;;;4990258;28;20054;-49
2022/07/23 07:08:56;;;;;;;1.60;0.80;;;32.50;75.80;;;;;;5005704;28;20042;-45
2022/07/23 07:11:25;;;;;;;1.15;0.85;;;32.30;74.50;;;;;;4994895;28;20053;-49
2022/07/23 07:13:58;;;;;;;1.33;0.70;;;32.40;74.80;;;;;;5010698;28;20488;-47
2022/07/23 07:16:24;;;;;;;0.73;0.70;;;32.20;73.50;;;;;;4994406;28;20508;-51
2022/07/23 07:18:53;;;;;;;1.38;0.77;;;32.10;74.90;;;;;;4986378;28;20062;-50
2022/07/23 07:21:21;;;;;;;1.77;0.80;;;31.90;74.20;;;;;;4990503;28;20512;-49
2022/07/23 07:23:59;;;;;;;2.55;0.73;;;31.60;75.10;;;;;;4985375;28;20544;-49
2022/07/23 07:26:31;;;;;;;2.92;1.05;;;30.60;74.70;;;;;;4976779;28;20559;-49
2022/07/23 07:29:02;;;;;;;1.40;0.90;;;29.80;76.10;;;;;;4997083;28;20570;-51
2022/07/23 07:31:29;;;;;;;2.63;0.80;;;29.10;75.90;;;;;;4988404;28;20046;-49
2022/07/23 07:33:56;;;;;;;0.98;0.73;;;28.80;77.60;;;;;;5028911;28;20049;-49
2022/07/23 07:36:25;;;;;;;2.90;0.77;;;28.50;77.40;;;;;;4998733;28;20489;-48
2022/07/23 07:38:52;;;;;;;3.10;0.90;;;27.90;77.20;;;;;;4956204;28;20148;-45
2022/07/23 07:41:23;;;;;;;1.08;0.73;;;28.00;78.70;;;;;;4990726;28;20046;-49
2022/07/23 07:43:54;;;;;;;3.40;0.67;;;27.80;78.60;;;;;;5010739;28;20492;-51
2022/07/23 07:46:23;;;;;;;2.00;0.85;;;27.60;78.10;;;;;;5028722;28;20502;-48
2022/07/23 07:48:51;;;;;;;3.22;0.80;;;27.20;79.80;;;;;;4982394;28;20080;-49
2022/07/23 07:51:19;;;;;;;2.67;0.75;;;26.70;80.20;;;;;;5014327;28;20120;-47
2022/07/23 07:53:46;;;;;;;2.30;0.75;;;26.30;80.30;;;;;;5015547;28;20046;-49
2022/07/23 07:56:13;;;;;;;2.72;0.90;;;25.80;80.20;;;;;;5001232;28;20103;-45
2022/07/23 07:58:43;;;;;;;1.80;0.80;;;25.40;80.10;;;;;;4990993;28;20060;-45
2022/07/23 08:01:10;;;;;;;2.70;1.23;;;25.10;82.70;;;;;;4993151;28;20389;-46
2022/07/23 08:03:36;;;;;;;1.58;0.80;;;24.80;82.20;;;;;;4991184;28;20042;-50
2022/07/23 08:06:15;;;;;;;1.63;0.80;;;24.70;82.50;;;;;;4974276;28;20174;-46
2022/07/23 08:08:43;;;;;;;3.45;0.85;;;24.50;81.40;;;;;;4990009;28;20054;-46
2022/07/23 08:11:11;;;;;;;4.03;0.80;;;24.40;83.70;;;;;;4973003;28;20062;-47
2022/07/23 08:13:39;;;;;;;2.65;1.15;;;24.00;84.90;;;;;;4976465;28;20042;-51
2022/07/23 08:16:06;;;;;;;2.90;0.80;;;23.80;85.10;;;;;;4960369;28;20420;-49
2022/07/23 08:18:33;;;;;;;3.00;1.00;;;23.60;84.40;;;;;;4990054;28;20042;-48
2022/07/23 08:20:59;;;;;;;1.17;0.80;;;23.50;85.10;;;;;;4970090;28;20046;-51
2022/07/23 08:23:25;;;;;;;1.70;0.75;;;23.40;84.90;;;;;;4953192;28;20506;-51
2022/07/23 08:25:56;;;;;;;1.35;0.90;;;23.30;85.50;;;;;;4987555;28;20140;-49
2022/07/23 08:28:27;;;;;;;1.48;0.75;;;22.90;84.80;;;;;;4986418;28;20046;-48
2022/07/23 08:30:55;;;;;;;0.88;0.70;;;22.90;85.80;;;;;;4987852;28;20525;-51
2022/07/23 08:33:25;;;;;;;2.78;0.95;;;22.80;85.80;;;;;;4956128;28;20058;-49
2022/07/23 08:35:55;;;;;;;2.13;1.10;;;22.70;87.00;;;;;;4993079;28;20469;-51
2022/07/23 08:38:23;;;;;;;2.13;0.80;;;22.60;87.40;;;;;;4971672;28;20478;-49
2022/07/23 08:40:52;;;;;;;1.45;1.00;;;22.60;87.40;;;;;;4978714;28;20142;-47
2022/07/23 08:43:24;;;;;;;2.15;0.88;;;22.60;87.70;;;;;;4987099;28;20042;-48
2022/07/23 08:45:59;;;;;;;1.60;0.90;;;22.60;88.10;;;;;;4954112;28;20058;-49
2022/07/23 08:48:31;;;;;;;1.95;0.90;;;22.50;88.10;;;;;;4988259;28;20057;-50
2022/07/23 08:51:00;;;;;;;1.33;0.88;;;22.60;87.40;;;;;;4961002;28;20061;-48
2022/07/23 08:53:30;;;;;;;1.27;0.95;;;22.50;88.20;;;;;;4995986;28;20166;-50
2022/07/23 08:56:03;;;;;;;1.33;1.08;;;22.50;88.80;;;;;;4988338;28;20053;-48
2022/07/23 08:58:31;;;;;;;2.00;0.90;;;22.60;89.80;;;;;;4970215;28;20194;-49
2022/07/23 09:00:58;;;;;;;1.40;1.00;;;22.50;89.50;;;;;;4963675;28;20112;-54
2022/07/23 09:03:31;;;;;;;3.20;1.10;;;22.70;90.40;;;;;;4977748;28;20062;-52
2022/07/23 09:06:00;;;;;;;1.50;1.08;;;22.80;90.20;;;;;;4992886;28;20408;-47
2022/07/23 09:08:46;;;;;;;2.92;1.10;;;22.90;89.90;;;;;;4963193;28;20080;-52
2022/07/23 09:11:18;;;;;;;2.55;1.05;;;23.10;89.40;;;;;;4975030;28;20085;-52
2022/07/23 09:13:54;;;;;;;2.28;1.02;;;23.20;88.80;;;;;;4979270;28;20050;-51
2022/07/23 09:16:31;;;;;;;3.10;0.93;;;23.30;88.30;;;;;;5006122;28;20099;-49
2022/07/23 09:19:22;;;;;;;2.45;0.90;;;23.20;87.90;;;;;;4988304;28;20081;-51
2022/07/23 09:22:18;;;;;;;1.52;0.80;;;23.20;88.80;;;;;;4968901;28;20141;-53
2022/07/23 09:25:18;;;;;;;2.40;1.10;;;22.90;88.60;;;;;;4967932;28;20462;-49
2022/07/23 09:28:02;;;;;;;1.92;1.00;;;22.90;89.00;;;;;;4963696;28;20599;-49
2022/07/23 09:30:36;;;;;;;1.95;0.88;;;22.80;89.50;;;;;;4954484;28;20051;-52
2022/07/23 09:33:17;;;;;;;2.40;1.10;;;22.80;89.40;;;;;;4993750;28;20141;-48
2022/07/23 09:35:55;;;;;;;3.63;1.10;;;22.60;90.50;;;;;;4976361;28;20046;-53
2022/07/23 09:38:24;;;;;;;2.08;1.13;;;22.70;90.50;;;;;;4986387;28;20057;-52
2022/07/23 09:41:11;;;;;;;3.42;1.20;;;22.80;90.90;;;;;;4977402;28;20493;-49
2022/07/23 09:43:40;;;;;;;4.20;1.42;;;23.10;90.30;;;;;;4974320;28;20069;-51
2022/07/23 09:46:28;;;;;;;4.93;1.10;;;23.30;90.00;;;;;;4995274;28;20517;-48
2022/07/23 09:48:56;;;;;;;3.60;1.35;;;23.30;88.80;;;;;;4971401;28;20116;-50
2022/07/23 09:51:36;;;;;;;2.90;1.40;;;23.30;90.30;;;;;;5002670;28;20042;-52
2022/07/23 09:54:02;;;;;;;3.90;1.30;;;23.20;90.20;;;;;;4995207;28;20050;-53
2022/07/23 09:56:29;;;;;;;2.08;1.25;;;23.10;89.00;;;;;;5005729;28;20057;-51
2022/07/23 09:59:11;;;;;;;2.45;1.20;;;23.20;89.70;;;;;;4968102;28;20133;-54
2022/07/23 10:01:40;;;;;;;1.42;1.30;;;23.40;90.60;;;;;;4963989;28;20056;-53
2022/07/23 10:04:14;;;;;;;3.00;1.42;;;23.60;89.70;;;;;;5003725;28;20416;-51
2022/07/23 10:06:43;;;;;;;3.15;1.33;;;23.70;90.00;;;;;;4986798;28;20049;-52
2022/07/23 10:09:16;;;;;;;2.58;1.42;;;23.80;90.00;;;;;;4984724;28;20082;-50
2022/07/23 10:11:43;;;;;;;;;;;23.90;90.10;;;;;;4969564;28;20046;-52
2022/07/23 10:14:10;;;;;;;2.15;1.30;;;23.90;89.80;;;;;;4968292;28;20732;-53
2022/07/23 10:16:41;;;;;;;3.00;1.30;;;23.70;90.00;;;;;;4985759;28;20481;-48
2022/07/23 10:19:10;;;;;;;3.63;1.65;;;23.60;90.10;;;;;;4994663;28;20299;-48
2022/07/23 10:21:58;;;;;;;2.58;1.15;;;23.80;90.50;;;;;;4993588;28;20170;-50
2022/07/23 10:24:30;;;;;;;2.13;1.30;;;24.00;90.30;;;;;;4968721;28;20059;-49
2022/07/23 10:27:03;;;;;;;1.60;1.40;;;24.00;89.90;;;;;;4951769;28;20042;-52
2022/07/23 10:30:06;;;;;;;1.88;1.50;;;23.90;90.60;;;;;;4968529;28;20061;-52
2022/07/23 10:32:57;;;;;;;2.15;1.65;;;24.00;90.50;;;;;;4978529;28;20050;-49
2022/07/23 10:36:01;;;;;;;7.32;1.65;;;24.00;90.60;;;;;;4977269;28;20449;-52
2022/07/23 10:39:01;;;;;;;2.08;1.42;;;24.00;90.00;;;;;;4985003;28;20054;-50
2022/07/23 10:41:40;;;;;;;3.67;1.52;;;23.80;89.90;;;;;;4983058;28;20046;-50
2022/07/23 10:44:19;;;;;;;2.70;1.55;;;23.90;90.60;;;;;;4987186;28;20046;-48
2022/07/23 10:49:37;;;;;;;2.92;1.70;;;24.30;90.10;;;;;;4976995;28;20042;-49
2022/07/23 10:52:18;;;;;;;5.00;1.67;;;24.30;90.40;;;;;;4972227;28;20057;-48
2022/07/23 10:55:02;;;;;;;2.80;1.40;;;24.40;90.50;;;;;;4937313;28;20509;-45
2022/07/23 10:57:28;;;;;;;4.13;1.60;;;24.20;91.20;;;;;;4964733;28;20051;-52
2022/07/23 11:00:14;;;;;;;3.17;2.17;;;24.10;90.30;;;;;;4967134;28;20069;-49
2022/07/23 11:02:45;;;;;;;3.58;1.80;;;24.10;90.00;;;;;;4958559;28;20072;-50
2022/07/23 11:05:22;;;;;;;2.28;1.73;;;24.10;90.10;;;;;;4978589;28;20501;-50
2022/07/23 11:08:23;;;;;;;5.00;1.80;;;24.10;90.60;;;;;;5004848;28;20620;-49
2022/07/23 11:11:15;;;;;;;2.38;1.67;;;24.40;90.60;;;;;;4959971;28;20138;-50
2022/07/23 11:13:45;;;;;;;2.70;1.60;;;24.40;90.10;;;;;;4967540;28;20521;-49
2022/07/23 11:16:18;;;;;;;2.75;1.73;;;24.20;90.10;;;;;;4949950;28;20076;-46
2022/07/23 11:18:44;;;;;;;3.95;2.20;;;24.40;90.50;;;;;;4979906;28;20057;-47
2022/07/23 11:21:26;;;;;;;3.20;1.80;;;24.30;89.80;;;;;;4955276;28;20089;-50
2022/07/23 11:24:07;;;;;;;3.00;2.00;;;24.30;90.40;;;;;;4959739;28;20042;-49
2022/07/23 11:26:46;;;;;;;3.70;1.85;;;24.40;91.50;;;;;;4965922;28;20073;-49
2022/07/23 11:29:28;;;;;;;2.42;1.63;;;24.40;90.60;;;;;;4966494;28;20494;-47
2022/07/23 11:32:25;;;;;;;3.40;2.17;;;24.50;90.50;;;;;;4976159;28;20090;-50
2022/07/23 11:34:53;;;;;;;5.03;1.98;;;24.50;89.40;;;;;;4956504;28;20051;-50
2022/07/23 11:38:03;;;;;;;2.58;1.85;;;24.30;90.60;;;;;;4947060;28;20134;-49
2022/07/23 11:40:30;;;;;;;3.72;1.85;;;24.30;90.10;;;;;;4908249;29;20151;-49
2022/07/23 11:43:10;;;;;;;3.00;1.67;;;24.30;90.30;;;;;;4894682;29;20109;-50
2022/07/23 11:45:48;;;;;;;4.55;1.80;;;24.20;90.70;;;;;;4917430;29;20086;-49
2022/07/23 11:48:24;;;;;;;2.58;1.63;;;24.20;91.40;;;;;;4932168;28;20160;-54
2022/07/23 11:50:51;;;;;;;3.55;2.33;;;24.30;90.60;;;;;;4943441;28;20059;-49
2022/07/23 11:53:23;;;;;;;3.95;2.92;;;24.30;91.00;;;;;;4933639;29;20087;-49
2022/07/23 11:55:54;;;;;;;3.88;2.92;;;24.30;89.60;;;;;;4948730;28;20059;-53
2022/07/23 11:58:25;;;;;;;3.38;1.90;;;24.30;90.70;;;;;;4938621;29;20047;-51
2022/07/23 12:00:55;;;;;;;3.53;2.20;;;24.40;90.30;;;;;;4934353;28;20101;-49
2022/07/23 12:03:24;;;;;;;3.95;2.20;;;24.60;91.60;;;;;;4966003;28;20577;-49
2022/07/23 12:05:58;;;;;;;3.92;2.00;;;24.50;91.10;;;;;;4935268;28;20055;-50
2022/07/23 12:08:30;;;;;;;3.55;1.88;;;24.60;92.10;;;;;;4938299;28;20047;-51
2022/07/23 12:11:02;;;;;;;2.88;2.00;;;24.80;92.00;;;;;;4947703;28;20592;-51
2022/07/23 12:13:29;;;;;;;4.32;2.25;;;24.90;90.30;;;;;;4927179;28;20047;-52
2022/07/23 12:15:58;;;;;;;3.45;2.13;;;24.70;90.60;;;;;;4960488;28;20407;-52
2022/07/23 12:18:28;;;;;;;6.45;2.50;;;24.70;90.50;;;;;;4986858;28;20053;-50
2022/07/23 12:21:05;;;;;;;3.35;2.05;;;24.80;90.90;;;;;;5010072;28;20250;-51
2022/07/23 12:23:32;;;;;;;3.28;2.58;;;25.00;91.00;;;;;;4987374;28;20054;-51
2022/07/23 12:26:02;;;;;;;3.75;2.05;;;24.90;90.90;;;;;;4973749;28;20541;-50
2022/07/23 12:28:35;;;;;;;4.53;2.30;;;25.00;91.00;;;;;;5012870;28;20352;-53
2022/07/23 12:31:02;;;;;;;5.03;2.30;;;25.00;90.90;;;;;;4997107;28;20377;-48
2022/07/23 12:33:35;;;;;;;4.10;2.35;;;24.70;90.50;;;;;;5005484;28;20107;-49
2022/07/23 12:36:06;;;;;;;3.78;2.20;;;24.70;90.40;;;;;;4990480;28;20133;-49
2022/07/23 12:38:52;;;;;;;6.40;3.20;;;24.80;91.40;;;;;;5018842;28;20054;-51
2022/07/23 12:41:19;;;;;;;3.85;2.65;;;25.00;91.20;;;;;;5006253;28;20136;-52
2022/07/23 12:43:47;;;;;;;3.60;2.50;;;25.00;90.80;;;;;;5026462;28;20046;-50
2022/07/23 12:46:15;;;;;;;3.53;2.92;;;25.10;91.10;;;;;;5007180;28;20136;-51
2022/07/23 12:48:55;;;;;;;2.38;2.00;;;24.70;90.40;;;;;;4987744;28;20053;-52
2022/07/23 12:51:30;;;;;;;4.70;2.17;;;24.70;91.60;;;;;;5008353;28;20547;-49
2022/07/23 12:54:05;;;;;;;3.15;2.30;;;24.70;91.10;;;;;;4990719;28;20050;-51
2022/07/23 12:56:34;;;;;;;2.97;2.22;;;24.50;91.00;;;;;;4998155;28;20095;-52
2022/07/23 12:59:13;;;;;;;5.22;2.30;;;24.50;91.10;;;;;;5008929;28;20508;-48
2022/07/23 13:01:48;;;;;;;4.32;2.38;;;24.60;91.80;;;;;;4991534;28;20395;-50
2022/07/23 13:04:19;;;;;;;4.47;2.75;;;24.70;91.80;;;;;;4965480;28;20061;-49
2022/07/23 13:06:48;;;;;;;3.95;2.25;;;24.70;91.50;;;;;;4991153;28;20060;-47
2022/07/23 13:09:18;;;;;;;3.28;2.33;;;24.60;91.60;;;;;;5022194;28;20054;-51